sensor_id;sensor_type;location;lat;lon;timestamp;P1;durP1;ratioP1;P2;durP2;ratioP2
5157;SDS011;2598;52.364;9.772;2023-07-31T00:00:36;103.40;;;42.73;;
5157;SDS011;2598;52.364;9.772;2023-07-31T00:03:02;104.07;;;46.83;;
5157;SDS011;2598;52.364;9.772;2023-07-31T00:05:28;105.07;;;44.30;;
5157;SDS011;2598;52.364;9.772;2023-07-31T00:07:54;106.83;;;47.23;;
5157;SDS011;2598;52.364;9.772;2023-07-31T00:10:20;105.17;;;45.40;;
5157;SDS011;2598;52.364;9.772;2023-07-31T00:12:46;102.43;;;43.63;;
5157;SDS011;2598;52.364;9.772;2023-07-31T00:15:13;105.33;;;45.23;;
5157;SDS011;2598;52.364;9.772;2023-07-31T00:17:39;111.73;;;51.47;;
5157;SDS011;2598;52.364;9.772;2023-07-31T00:20:05;104.70;;;47.73;;
5157;SDS011;2598;52.364;9.772;2023-07-31T00:22:31;106.73;;;46.03;;
5157;SDS011;2598;52.364;9.772;2023-07-31T00:24:57;105.70;;;43.83;;
5157;SDS011;2598;52.364;9.772;2023-07-31T00:27:24;104.20;;;46.47;;
5157;SDS011;2598;52.364;9.772;2023-07-31T00:29:50;109.80;;;49.87;;
5157;SDS011;2598;52.364;9.772;2023-07-31T00:32:16;106.40;;;51.57;;
5157;SDS011;2598;52.364;9.772;2023-07-31T00:34:42;107.27;;;49.10;;
5157;SDS011;2598;52.364;9.772;2023-07-31T00:37:08;106.07;;;48.63;;
5157;SDS011;2598;52.364;9.772;2023-07-31T00:39:34;109.20;;;52.50;;
5157;SDS011;2598;52.364;9.772;2023-07-31T00:42:01;108.90;;;50.43;;
5157;SDS011;2598;52.364;9.772;2023-07-31T00:44:26;107.70;;;53.00;;
5157;SDS011;2598;52.364;9.772;2023-07-31T00:46:52;107.83;;;51.93;;
5157;SDS011;2598;52.364;9.772;2023-07-31T00:49:20;110.43;;;52.90;;
5157;SDS011;2598;52.364;9.772;2023-07-31T00:51:46;108.90;;;53.57;;
5157;SDS011;2598;52.364;9.772;2023-07-31T00:54:12;110.27;;;55.83;;
5157;SDS011;2598;52.364;9.772;2023-07-31T00:56:38;111.60;;;57.13;;
5157;SDS011;2598;52.364;9.772;2023-07-31T00:59:04;108.00;;;53.20;;
5157;SDS011;2598;52.364;9.772;2023-07-31T01:01:30;110.47;;;56.20;;
5157;SDS011;2598;52.364;9.772;2023-07-31T01:03:56;110.97;;;58.00;;
5157;SDS011;2598;52.364;9.772;2023-07-31T01:06:31;110.90;;;56.10;;
5157;SDS011;2598;52.364;9.772;2023-07-31T01:11:48;109.17;;;55.10;;
5157;SDS011;2598;52.364;9.772;2023-07-31T01:14:15;111.57;;;59.40;;
5157;SDS011;2598;52.364;9.772;2023-07-31T01:16:41;111.57;;;59.43;;
5157;SDS011;2598;52.364;9.772;2023-07-31T01:19:07;111.43;;;56.40;;
5157;SDS011;2598;52.364;9.772;2023-07-31T01:24:08;112.10;;;57.97;;
5157;SDS011;2598;52.364;9.772;2023-07-31T01:26:41;112.40;;;59.57;;
5157;SDS011;2598;52.364;9.772;2023-07-31T01:29:16;113.00;;;57.77;;
5157;SDS011;2598;52.364;9.772;2023-07-31T01:31:43;111.10;;;56.67;;
5157;SDS011;2598;52.364;9.772;2023-07-31T01:34:12;109.47;;;53.97;;
5157;SDS011;2598;52.364;9.772;2023-07-31T01:36:38;109.87;;;56.57;;
5157;SDS011;2598;52.364;9.772;2023-07-31T01:39:04;110.33;;;57.10;;
5157;SDS011;2598;52.364;9.772;2023-07-31T01:41:30;112.10;;;61.43;;
5157;SDS011;2598;52.364;9.772;2023-07-31T01:43:56;113.47;;;56.23;;
5157;SDS011;2598;52.364;9.772;2023-07-31T01:46:22;113.50;;;59.43;;
5157;SDS011;2598;52.364;9.772;2023-07-31T01:48:48;115.07;;;62.67;;
5157;SDS011;2598;52.364;9.772;2023-07-31T01:51:14;111.37;;;60.47;;
5157;SDS011;2598;52.364;9.772;2023-07-31T01:53:40;111.50;;;57.90;;
5157;SDS011;2598;52.364;9.772;2023-07-31T01:56:06;110.10;;;55.30;;
5157;SDS011;2598;52.364;9.772;2023-07-31T01:58:31;111.17;;;57.10;;
5157;SDS011;2598;52.364;9.772;2023-07-31T02:00:57;113.27;;;63.87;;
5157;SDS011;2598;52.364;9.772;2023-07-31T02:03:23;113.60;;;62.50;;
5157;SDS011;2598;52.364;9.772;2023-07-31T02:05:49;112.13;;;60.03;;
5157;SDS011;2598;52.364;9.772;2023-07-31T02:08:15;109.60;;;56.00;;
5157;SDS011;2598;52.364;9.772;2023-07-31T02:10:41;109.60;;;56.13;;
5157;SDS011;2598;52.364;9.772;2023-07-31T02:13:07;111.90;;;57.37;;
5157;SDS011;2598;52.364;9.772;2023-07-31T02:15:34;111.57;;;59.97;;
5157;SDS011;2598;52.364;9.772;2023-07-31T02:18:00;112.20;;;60.53;;
5157;SDS011;2598;52.364;9.772;2023-07-31T02:20:26;109.23;;;55.43;;
5157;SDS011;2598;52.364;9.772;2023-07-31T02:22:51;110.80;;;56.57;;
5157;SDS011;2598;52.364;9.772;2023-07-31T02:25:17;109.60;;;57.10;;
5157;SDS011;2598;52.364;9.772;2023-07-31T02:27:43;107.77;;;52.27;;
5157;SDS011;2598;52.364;9.772;2023-07-31T02:30:09;108.80;;;55.00;;
5157;SDS011;2598;52.364;9.772;2023-07-31T02:32:36;111.20;;;57.83;;
5157;SDS011;2598;52.364;9.772;2023-07-31T02:35:02;109.70;;;56.43;;
5157;SDS011;2598;52.364;9.772;2023-07-31T02:37:28;113.17;;;62.07;;
5157;SDS011;2598;52.364;9.772;2023-07-31T02:39:54;112.07;;;58.30;;
5157;SDS011;2598;52.364;9.772;2023-07-31T02:42:20;110.97;;;58.10;;
5157;SDS011;2598;52.364;9.772;2023-07-31T02:44:46;112.67;;;60.47;;
5157;SDS011;2598;52.364;9.772;2023-07-31T02:47:12;114.67;;;60.97;;
5157;SDS011;2598;52.364;9.772;2023-07-31T02:49:38;114.70;;;55.57;;
5157;SDS011;2598;52.364;9.772;2023-07-31T02:52:04;112.00;;;57.20;;
5157;SDS011;2598;52.364;9.772;2023-07-31T02:54:30;108.30;;;54.17;;
5157;SDS011;2598;52.364;9.772;2023-07-31T02:56:56;109.20;;;54.07;;
5157;SDS011;2598;52.364;9.772;2023-07-31T02:59:22;112.23;;;57.60;;
5157;SDS011;2598;52.364;9.772;2023-07-31T03:01:48;111.67;;;58.23;;
5157;SDS011;2598;52.364;9.772;2023-07-31T03:04:14;109.40;;;53.03;;
5157;SDS011;2598;52.364;9.772;2023-07-31T03:06:40;110.50;;;57.00;;
5157;SDS011;2598;52.364;9.772;2023-07-31T03:09:06;110.47;;;55.67;;
5157;SDS011;2598;52.364;9.772;2023-07-31T03:11:32;108.23;;;54.07;;
5157;SDS011;2598;52.364;9.772;2023-07-31T03:13:58;112.13;;;58.53;;
5157;SDS011;2598;52.364;9.772;2023-07-31T03:16:24;113.53;;;55.27;;
5157;SDS011;2598;52.364;9.772;2023-07-31T03:18:49;109.97;;;54.87;;
5157;SDS011;2598;52.364;9.772;2023-07-31T03:21:15;108.97;;;53.13;;
5157;SDS011;2598;52.364;9.772;2023-07-31T03:23:41;109.57;;;53.40;;
5157;SDS011;2598;52.364;9.772;2023-07-31T03:26:08;110.07;;;53.27;;
5157;SDS011;2598;52.364;9.772;2023-07-31T03:28:34;107.07;;;51.83;;
5157;SDS011;2598;52.364;9.772;2023-07-31T03:31:00;107.47;;;50.83;;
5157;SDS011;2598;52.364;9.772;2023-07-31T03:33:26;109.07;;;54.53;;
5157;SDS011;2598;52.364;9.772;2023-07-31T03:35:52;107.40;;;51.87;;
5157;SDS011;2598;52.364;9.772;2023-07-31T03:38:18;107.73;;;50.87;;
5157;SDS011;2598;52.364;9.772;2023-07-31T03:40:44;108.17;;;52.77;;
5157;SDS011;2598;52.364;9.772;2023-07-31T03:43:11;109.23;;;52.23;;
5157;SDS011;2598;52.364;9.772;2023-07-31T03:45:37;108.57;;;53.20;;
5157;SDS011;2598;52.364;9.772;2023-07-31T03:48:03;108.17;;;50.43;;
5157;SDS011;2598;52.364;9.772;2023-07-31T03:50:29;109.40;;;52.90;;
5157;SDS011;2598;52.364;9.772;2023-07-31T03:52:56;108.90;;;47.03;;
5157;SDS011;2598;52.364;9.772;2023-07-31T03:55:22;109.50;;;52.97;;
5157;SDS011;2598;52.364;9.772;2023-07-31T03:57:48;106.67;;;49.97;;
5157;SDS011;2598;52.364;9.772;2023-07-31T04:00:14;109.10;;;53.40;;
5157;SDS011;2598;52.364;9.772;2023-07-31T04:02:40;105.60;;;47.87;;
5157;SDS011;2598;52.364;9.772;2023-07-31T04:05:06;108.80;;;53.57;;
5157;SDS011;2598;52.364;9.772;2023-07-31T04:07:32;106.73;;;50.63;;
5157;SDS011;2598;52.364;9.772;2023-07-31T04:09:57;108.33;;;52.97;;
5157;SDS011;2598;52.364;9.772;2023-07-31T04:12:23;107.73;;;49.57;;
5157;SDS011;2598;52.364;9.772;2023-07-31T04:14:49;107.47;;;47.97;;
5157;SDS011;2598;52.364;9.772;2023-07-31T04:17:17;109.17;;;53.17;;
5157;SDS011;2598;52.364;9.772;2023-07-31T04:19:43;109.40;;;50.30;;
5157;SDS011;2598;52.364;9.772;2023-07-31T04:22:09;106.90;;;47.90;;
5157;SDS011;2598;52.364;9.772;2023-07-31T04:24:35;107.67;;;50.10;;
5157;SDS011;2598;52.364;9.772;2023-07-31T04:27:01;108.00;;;50.97;;
5157;SDS011;2598;52.364;9.772;2023-07-31T04:29:27;106.17;;;49.03;;
5157;SDS011;2598;52.364;9.772;2023-07-31T04:31:53;108.20;;;49.27;;
5157;SDS011;2598;52.364;9.772;2023-07-31T04:34:19;107.77;;;50.33;;
5157;SDS011;2598;52.364;9.772;2023-07-31T04:36:45;105.87;;;46.87;;
5157;SDS011;2598;52.364;9.772;2023-07-31T04:39:10;113.07;;;50.93;;
5157;SDS011;2598;52.364;9.772;2023-07-31T04:41:36;105.03;;;46.07;;
5157;SDS011;2598;52.364;9.772;2023-07-31T04:44:02;106.60;;;49.03;;
5157;SDS011;2598;52.364;9.772;2023-07-31T04:46:28;105.87;;;47.80;;
5157;SDS011;2598;52.364;9.772;2023-07-31T04:48:55;109.77;;;53.30;;
5157;SDS011;2598;52.364;9.772;2023-07-31T04:51:20;105.93;;;48.57;;
5157;SDS011;2598;52.364;9.772;2023-07-31T04:53:48;108.37;;;52.70;;
5157;SDS011;2598;52.364;9.772;2023-07-31T04:56:14;107.47;;;48.50;;
5157;SDS011;2598;52.364;9.772;2023-07-31T04:58:40;107.50;;;51.77;;
5157;SDS011;2598;52.364;9.772;2023-07-31T05:01:06;105.57;;;46.87;;
5157;SDS011;2598;52.364;9.772;2023-07-31T05:03:32;107.67;;;51.17;;
5157;SDS011;2598;52.364;9.772;2023-07-31T05:05:58;105.50;;;46.80;;
5157;SDS011;2598;52.364;9.772;2023-07-31T05:08:24;106.10;;;48.23;;
5157;SDS011;2598;52.364;9.772;2023-07-31T05:10:50;108.10;;;49.83;;
5157;SDS011;2598;52.364;9.772;2023-07-31T05:13:16;107.57;;;50.17;;
5157;SDS011;2598;52.364;9.772;2023-07-31T05:15:42;108.20;;;50.27;;
5157;SDS011;2598;52.364;9.772;2023-07-31T05:18:08;106.07;;;47.07;;
5157;SDS011;2598;52.364;9.772;2023-07-31T05:20:33;106.77;;;48.17;;
5157;SDS011;2598;52.364;9.772;2023-07-31T05:22:59;107.20;;;48.27;;
5157;SDS011;2598;52.364;9.772;2023-07-31T05:25:25;108.10;;;50.33;;
5157;SDS011;2598;52.364;9.772;2023-07-31T05:27:51;106.37;;;44.70;;
5157;SDS011;2598;52.364;9.772;2023-07-31T05:30:17;106.07;;;45.90;;
5157;SDS011;2598;52.364;9.772;2023-07-31T05:32:43;107.13;;;48.10;;
5157;SDS011;2598;52.364;9.772;2023-07-31T05:35:09;104.60;;;44.00;;
5157;SDS011;2598;52.364;9.772;2023-07-31T05:37:35;106.97;;;48.87;;
5157;SDS011;2598;52.364;9.772;2023-07-31T05:40:01;109.63;;;52.57;;
5157;SDS011;2598;52.364;9.772;2023-07-31T05:42:27;109.87;;;48.03;;
5157;SDS011;2598;52.364;9.772;2023-07-31T05:44:53;106.47;;;48.07;;
5157;SDS011;2598;52.364;9.772;2023-07-31T05:47:19;114.20;;;47.17;;
5157;SDS011;2598;52.364;9.772;2023-07-31T05:49:45;109.90;;;46.03;;
5157;SDS011;2598;52.364;9.772;2023-07-31T05:52:11;109.97;;;48.40;;
5157;SDS011;2598;52.364;9.772;2023-07-31T05:54:37;108.90;;;48.90;;
5157;SDS011;2598;52.364;9.772;2023-07-31T05:57:03;111.67;;;51.47;;
5157;SDS011;2598;52.364;9.772;2023-07-31T05:59:29;111.70;;;48.50;;
5157;SDS011;2598;52.364;9.772;2023-07-31T06:01:58;110.37;;;51.37;;
5157;SDS011;2598;52.364;9.772;2023-07-31T06:04:23;109.97;;;49.20;;
5157;SDS011;2598;52.364;9.772;2023-07-31T06:06:50;110.37;;;47.57;;
5157;SDS011;2598;52.364;9.772;2023-07-31T06:09:16;109.63;;;49.90;;
5157;SDS011;2598;52.364;9.772;2023-07-31T06:11:42;110.77;;;49.90;;
5157;SDS011;2598;52.364;9.772;2023-07-31T06:14:08;113.53;;;52.83;;
5157;SDS011;2598;52.364;9.772;2023-07-31T06:16:34;113.30;;;51.63;;
5157;SDS011;2598;52.364;9.772;2023-07-31T06:19:00;114.60;;;55.07;;
5157;SDS011;2598;52.364;9.772;2023-07-31T06:21:26;111.67;;;49.53;;
5157;SDS011;2598;52.364;9.772;2023-07-31T06:23:52;113.63;;;54.17;;
5157;SDS011;2598;52.364;9.772;2023-07-31T06:26:18;113.00;;;53.80;;
5157;SDS011;2598;52.364;9.772;2023-07-31T06:28:44;112.73;;;54.67;;
5157;SDS011;2598;52.364;9.772;2023-07-31T06:31:10;115.00;;;56.50;;
5157;SDS011;2598;52.364;9.772;2023-07-31T06:33:36;116.33;;;59.47;;
5157;SDS011;2598;52.364;9.772;2023-07-31T06:36:02;111.57;;;54.83;;
5157;SDS011;2598;52.364;9.772;2023-07-31T06:38:28;114.47;;;53.50;;
5157;SDS011;2598;52.364;9.772;2023-07-31T06:40:54;117.80;;;57.87;;
5157;SDS011;2598;52.364;9.772;2023-07-31T06:43:20;113.43;;;56.37;;
5157;SDS011;2598;52.364;9.772;2023-07-31T06:45:46;111.17;;;53.23;;
5157;SDS011;2598;52.364;9.772;2023-07-31T06:48:15;114.00;;;58.60;;
5157;SDS011;2598;52.364;9.772;2023-07-31T06:50:41;116.50;;;57.50;;
5157;SDS011;2598;52.364;9.772;2023-07-31T06:53:07;112.67;;;53.70;;
5157;SDS011;2598;52.364;9.772;2023-07-31T06:55:33;117.77;;;62.50;;
5157;SDS011;2598;52.364;9.772;2023-07-31T06:57:59;114.07;;;53.10;;
5157;SDS011;2598;52.364;9.772;2023-07-31T07:00:25;117.50;;;55.80;;
5157;SDS011;2598;52.364;9.772;2023-07-31T07:02:51;113.70;;;55.80;;
5157;SDS011;2598;52.364;9.772;2023-07-31T07:05:17;120.73;;;58.37;;
5157;SDS011;2598;52.364;9.772;2023-07-31T07:07:43;117.77;;;61.00;;
5157;SDS011;2598;52.364;9.772;2023-07-31T07:10:09;118.00;;;52.13;;
5157;SDS011;2598;52.364;9.772;2023-07-31T07:12:35;117.83;;;59.93;;
5157;SDS011;2598;52.364;9.772;2023-07-31T07:15:02;116.27;;;55.20;;
5157;SDS011;2598;52.364;9.772;2023-07-31T07:17:28;115.37;;;54.77;;
5157;SDS011;2598;52.364;9.772;2023-07-31T07:19:58;121.50;;;53.53;;
5157;SDS011;2598;52.364;9.772;2023-07-31T07:22:24;123.10;;;59.80;;
5157;SDS011;2598;52.364;9.772;2023-07-31T07:24:50;120.43;;;55.90;;
5157;SDS011;2598;52.364;9.772;2023-07-31T07:27:16;116.67;;;57.30;;
5157;SDS011;2598;52.364;9.772;2023-07-31T07:29:42;122.27;;;56.10;;
5157;SDS011;2598;52.364;9.772;2023-07-31T07:32:08;124.90;;;61.57;;
5157;SDS011;2598;52.364;9.772;2023-07-31T07:34:34;123.23;;;58.10;;
5157;SDS011;2598;52.364;9.772;2023-07-31T07:37:00;118.83;;;58.37;;
5157;SDS011;2598;52.364;9.772;2023-07-31T07:39:26;123.40;;;59.60;;
5157;SDS011;2598;52.364;9.772;2023-07-31T07:41:52;121.73;;;62.07;;
5157;SDS011;2598;52.364;9.772;2023-07-31T07:44:19;121.93;;;61.97;;
5157;SDS011;2598;52.364;9.772;2023-07-31T07:46:45;123.23;;;62.60;;
5157;SDS011;2598;52.364;9.772;2023-07-31T07:49:10;118.37;;;57.10;;
5157;SDS011;2598;52.364;9.772;2023-07-31T07:51:36;128.37;;;66.90;;
5157;SDS011;2598;52.364;9.772;2023-07-31T07:54:02;124.60;;;64.67;;
5157;SDS011;2598;52.364;9.772;2023-07-31T07:56:28;125.60;;;68.27;;
5157;SDS011;2598;52.364;9.772;2023-07-31T07:58:54;121.43;;;64.03;;
5157;SDS011;2598;52.364;9.772;2023-07-31T08:01:20;122.60;;;63.97;;
5157;SDS011;2598;52.364;9.772;2023-07-31T08:03:46;119.47;;;65.17;;
5157;SDS011;2598;52.364;9.772;2023-07-31T08:06:12;127.03;;;70.20;;
5157;SDS011;2598;52.364;9.772;2023-07-31T08:08:38;120.33;;;68.30;;
5157;SDS011;2598;52.364;9.772;2023-07-31T08:11:04;125.30;;;65.17;;
5157;SDS011;2598;52.364;9.772;2023-07-31T08:13:30;125.13;;;64.90;;
5157;SDS011;2598;52.364;9.772;2023-07-31T08:15:56;116.57;;;57.53;;
5157;SDS011;2598;52.364;9.772;2023-07-31T08:18:22;128.77;;;66.10;;
5157;SDS011;2598;52.364;9.772;2023-07-31T08:20:48;124.27;;;73.13;;
5157;SDS011;2598;52.364;9.772;2023-07-31T08:23:14;127.83;;;67.10;;
5157;SDS011;2598;52.364;9.772;2023-07-31T08:25:41;120.63;;;71.17;;
5157;SDS011;2598;52.364;9.772;2023-07-31T08:28:07;118.67;;;63.60;;
5157;SDS011;2598;52.364;9.772;2023-07-31T08:30:33;121.90;;;72.43;;
5157;SDS011;2598;52.364;9.772;2023-07-31T08:32:59;117.73;;;63.50;;
5157;SDS011;2598;52.364;9.772;2023-07-31T08:35:26;123.07;;;69.37;;
5157;SDS011;2598;52.364;9.772;2023-07-31T08:37:55;124.17;;;67.60;;
5157;SDS011;2598;52.364;9.772;2023-07-31T08:40:21;123.70;;;73.70;;
5157;SDS011;2598;52.364;9.772;2023-07-31T08:42:47;121.27;;;72.50;;
5157;SDS011;2598;52.364;9.772;2023-07-31T08:45:18;125.33;;;66.00;;
5157;SDS011;2598;52.364;9.772;2023-07-31T08:47:44;123.73;;;69.57;;
5157;SDS011;2598;52.364;9.772;2023-07-31T08:50:14;125.37;;;74.07;;
5157;SDS011;2598;52.364;9.772;2023-07-31T08:52:40;124.63;;;69.97;;
5157;SDS011;2598;52.364;9.772;2023-07-31T08:55:06;123.80;;;72.77;;
5157;SDS011;2598;52.364;9.772;2023-07-31T08:57:33;121.97;;;70.20;;
5157;SDS011;2598;52.364;9.772;2023-07-31T09:00:00;125.00;;;69.13;;
5157;SDS011;2598;52.364;9.772;2023-07-31T09:02:28;122.07;;;69.00;;
5157;SDS011;2598;52.364;9.772;2023-07-31T09:04:56;122.07;;;69.97;;
5157;SDS011;2598;52.364;9.772;2023-07-31T09:07:22;121.70;;;70.00;;
5157;SDS011;2598;52.364;9.772;2023-07-31T09:09:48;119.83;;;64.83;;
5157;SDS011;2598;52.364;9.772;2023-07-31T09:12:14;101.70;;;21.83;;
5157;SDS011;2598;52.364;9.772;2023-07-31T09:14:40;123.27;;;70.87;;
5157;SDS011;2598;52.364;9.772;2023-07-31T09:17:07;125.90;;;65.57;;
5157;SDS011;2598;52.364;9.772;2023-07-31T09:19:34;122.00;;;67.73;;
5157;SDS011;2598;52.364;9.772;2023-07-31T09:22:02;119.80;;;62.83;;
5157;SDS011;2598;52.364;9.772;2023-07-31T09:24:29;119.03;;;63.90;;
5157;SDS011;2598;52.364;9.772;2023-07-31T09:26:55;122.33;;;66.40;;
5157;SDS011;2598;52.364;9.772;2023-07-31T09:29:22;119.43;;;67.57;;
5157;SDS011;2598;52.364;9.772;2023-07-31T09:31:48;118.17;;;66.03;;
5157;SDS011;2598;52.364;9.772;2023-07-31T09:34:14;114.77;;;62.97;;
5157;SDS011;2598;52.364;9.772;2023-07-31T09:36:41;121.57;;;64.37;;
5157;SDS011;2598;52.364;9.772;2023-07-31T09:39:08;122.13;;;66.17;;
5157;SDS011;2598;52.364;9.772;2023-07-31T09:41:42;117.47;;;67.70;;
5157;SDS011;2598;52.364;9.772;2023-07-31T09:44:08;116.87;;;70.17;;
5157;SDS011;2598;52.364;9.772;2023-07-31T09:46:35;115.77;;;67.63;;
5157;SDS011;2598;52.364;9.772;2023-07-31T09:49:10;117.73;;;68.77;;
5157;SDS011;2598;52.364;9.772;2023-07-31T09:51:36;116.13;;;68.03;;
5157;SDS011;2598;52.364;9.772;2023-07-31T09:54:13;118.10;;;69.93;;
5157;SDS011;2598;52.364;9.772;2023-07-31T09:56:41;114.60;;;65.00;;
5157;SDS011;2598;52.364;9.772;2023-07-31T09:59:08;114.40;;;63.80;;
5157;SDS011;2598;52.364;9.772;2023-07-31T10:01:36;114.67;;;67.20;;
5157;SDS011;2598;52.364;9.772;2023-07-31T10:04:02;117.50;;;63.77;;
5157;SDS011;2598;52.364;9.772;2023-07-31T10:06:29;112.30;;;62.87;;
5157;SDS011;2598;52.364;9.772;2023-07-31T10:08:55;115.70;;;68.90;;
5157;SDS011;2598;52.364;9.772;2023-07-31T10:11:22;111.93;;;63.57;;
5157;SDS011;2598;52.364;9.772;2023-07-31T10:13:50;114.93;;;66.47;;
5157;SDS011;2598;52.364;9.772;2023-07-31T10:16:17;117.27;;;72.67;;
5157;SDS011;2598;52.364;9.772;2023-07-31T10:18:43;115.27;;;64.90;;
5157;SDS011;2598;52.364;9.772;2023-07-31T10:21:10;115.90;;;65.97;;
5157;SDS011;2598;52.364;9.772;2023-07-31T10:23:37;112.70;;;65.10;;
5157;SDS011;2598;52.364;9.772;2023-07-31T10:26:03;115.73;;;69.87;;
5157;SDS011;2598;52.364;9.772;2023-07-31T10:28:31;115.17;;;66.67;;
5157;SDS011;2598;52.364;9.772;2023-07-31T10:30:58;116.57;;;68.10;;
5157;SDS011;2598;52.364;9.772;2023-07-31T10:33:24;112.17;;;63.03;;
5157;SDS011;2598;52.364;9.772;2023-07-31T10:35:51;112.10;;;60.97;;
5157;SDS011;2598;52.364;9.772;2023-07-31T10:38:37;118.30;;;67.70;;
5157;SDS011;2598;52.364;9.772;2023-07-31T10:41:09;114.47;;;67.40;;
5157;SDS011;2598;52.364;9.772;2023-07-31T10:43:36;112.67;;;62.90;;
5157;SDS011;2598;52.364;9.772;2023-07-31T10:46:06;112.30;;;63.50;;
5157;SDS011;2598;52.364;9.772;2023-07-31T10:48:33;115.87;;;66.07;;
5157;SDS011;2598;52.364;9.772;2023-07-31T10:51:01;114.57;;;64.37;;
5157;SDS011;2598;52.364;9.772;2023-07-31T10:53:32;113.67;;;67.47;;
5157;SDS011;2598;52.364;9.772;2023-07-31T10:55:58;115.27;;;64.47;;
5157;SDS011;2598;52.364;9.772;2023-07-31T10:58:25;113.77;;;67.83;;
5157;SDS011;2598;52.364;9.772;2023-07-31T11:00:54;113.87;;;65.57;;
5157;SDS011;2598;52.364;9.772;2023-07-31T11:03:24;113.83;;;64.67;;
5157;SDS011;2598;52.364;9.772;2023-07-31T11:06:03;115.27;;;65.53;;
5157;SDS011;2598;52.364;9.772;2023-07-31T11:08:33;117.43;;;69.40;;
5157;SDS011;2598;52.364;9.772;2023-07-31T11:13:28;116.80;;;68.43;;
5157;SDS011;2598;52.364;9.772;2023-07-31T11:15:55;116.87;;;68.90;;
5157;SDS011;2598;52.364;9.772;2023-07-31T11:18:21;112.17;;;64.43;;
5157;SDS011;2598;52.364;9.772;2023-07-31T11:20:47;143.53;;;84.50;;
5157;SDS011;2598;52.364;9.772;2023-07-31T11:23:15;111.60;;;61.63;;
5157;SDS011;2598;52.364;9.772;2023-07-31T11:25:41;115.53;;;67.03;;
5157;SDS011;2598;52.364;9.772;2023-07-31T11:28:08;113.93;;;66.93;;
5157;SDS011;2598;52.364;9.772;2023-07-31T11:30:34;113.77;;;65.33;;
5157;SDS011;2598;52.364;9.772;2023-07-31T11:33:04;116.87;;;68.07;;
5157;SDS011;2598;52.364;9.772;2023-07-31T11:35:34;118.80;;;69.03;;
5157;SDS011;2598;52.364;9.772;2023-07-31T11:38:00;115.20;;;66.77;;
5157;SDS011;2598;52.364;9.772;2023-07-31T11:40:27;113.80;;;66.40;;
5157;SDS011;2598;52.364;9.772;2023-07-31T11:43:04;114.00;;;68.33;;
5157;SDS011;2598;52.364;9.772;2023-07-31T11:45:30;116.07;;;69.27;;
5157;SDS011;2598;52.364;9.772;2023-07-31T11:47:57;115.17;;;67.97;;
5157;SDS011;2598;52.364;9.772;2023-07-31T11:50:23;116.00;;;67.23;;
5157;SDS011;2598;52.364;9.772;2023-07-31T11:52:54;115.70;;;67.60;;
5157;SDS011;2598;52.364;9.772;2023-07-31T11:55:21;112.17;;;61.40;;
5157;SDS011;2598;52.364;9.772;2023-07-31T11:57:47;116.33;;;70.77;;
5157;SDS011;2598;52.364;9.772;2023-07-31T12:00:14;112.70;;;62.23;;
5157;SDS011;2598;52.364;9.772;2023-07-31T12:02:40;112.50;;;63.17;;
5157;SDS011;2598;52.364;9.772;2023-07-31T12:05:10;110.90;;;62.80;;
5157;SDS011;2598;52.364;9.772;2023-07-31T12:07:46;113.60;;;68.30;;
5157;SDS011;2598;52.364;9.772;2023-07-31T12:10:22;115.30;;;65.60;;
5157;SDS011;2598;52.364;9.772;2023-07-31T12:12:55;112.40;;;61.43;;
5157;SDS011;2598;52.364;9.772;2023-07-31T12:15:22;112.50;;;66.17;;
5157;SDS011;2598;52.364;9.772;2023-07-31T12:17:47;116.87;;;64.60;;
5157;SDS011;2598;52.364;9.772;2023-07-31T12:20:13;110.83;;;58.43;;
5157;SDS011;2598;52.364;9.772;2023-07-31T12:22:40;112.90;;;65.30;;
5157;SDS011;2598;52.364;9.772;2023-07-31T12:25:06;108.93;;;60.20;;
5157;SDS011;2598;52.364;9.772;2023-07-31T12:27:32;114.80;;;63.50;;
5157;SDS011;2598;52.364;9.772;2023-07-31T12:29:59;109.73;;;58.67;;
5157;SDS011;2598;52.364;9.772;2023-07-31T12:32:25;116.00;;;70.73;;
5157;SDS011;2598;52.364;9.772;2023-07-31T12:34:53;112.27;;;65.37;;
5157;SDS011;2598;52.364;9.772;2023-07-31T12:37:20;116.77;;;72.80;;
5157;SDS011;2598;52.364;9.772;2023-07-31T12:39:46;114.40;;;65.57;;
5157;SDS011;2598;52.364;9.772;2023-07-31T12:42:12;109.73;;;58.90;;
5157;SDS011;2598;52.364;9.772;2023-07-31T12:44:38;107.93;;;58.33;;
5157;SDS011;2598;52.364;9.772;2023-07-31T12:47:04;111.10;;;63.30;;
5157;SDS011;2598;52.364;9.772;2023-07-31T12:49:31;111.53;;;62.60;;
5157;SDS011;2598;52.364;9.772;2023-07-31T12:51:57;108.30;;;58.07;;
5157;SDS011;2598;52.364;9.772;2023-07-31T12:54:23;110.83;;;62.83;;
5157;SDS011;2598;52.364;9.772;2023-07-31T12:56:48;112.20;;;61.60;;
5157;SDS011;2598;52.364;9.772;2023-07-31T12:59:14;110.07;;;62.03;;
5157;SDS011;2598;52.364;9.772;2023-07-31T13:01:40;111.60;;;64.43;;
5157;SDS011;2598;52.364;9.772;2023-07-31T13:04:06;110.40;;;61.90;;
5157;SDS011;2598;52.364;9.772;2023-07-31T13:06:33;107.03;;;57.20;;
5157;SDS011;2598;52.364;9.772;2023-07-31T13:08:59;112.33;;;64.73;;
5157;SDS011;2598;52.364;9.772;2023-07-31T13:11:25;110.70;;;64.27;;
5157;SDS011;2598;52.364;9.772;2023-07-31T13:13:51;109.03;;;59.53;;
5157;SDS011;2598;52.364;9.772;2023-07-31T13:16:17;108.43;;;59.93;;
5157;SDS011;2598;52.364;9.772;2023-07-31T13:18:43;110.43;;;64.40;;
5157;SDS011;2598;52.364;9.772;2023-07-31T13:21:09;109.03;;;60.97;;
5157;SDS011;2598;52.364;9.772;2023-07-31T13:23:35;110.53;;;62.30;;
5157;SDS011;2598;52.364;9.772;2023-07-31T13:26:01;105.20;;;53.07;;
5157;SDS011;2598;52.364;9.772;2023-07-31T13:28:27;106.43;;;55.53;;
5157;SDS011;2598;52.364;9.772;2023-07-31T13:30:53;110.40;;;60.67;;
5157;SDS011;2598;52.364;9.772;2023-07-31T13:33:19;111.37;;;64.93;;
5157;SDS011;2598;52.364;9.772;2023-07-31T13:35:45;109.93;;;62.43;;
5157;SDS011;2598;52.364;9.772;2023-07-31T13:38:11;108.50;;;57.53;;
5157;SDS011;2598;52.364;9.772;2023-07-31T13:40:37;107.40;;;56.13;;
5157;SDS011;2598;52.364;9.772;2023-07-31T13:43:03;110.00;;;59.77;;
5157;SDS011;2598;52.364;9.772;2023-07-31T13:45:29;110.00;;;57.13;;
5157;SDS011;2598;52.364;9.772;2023-07-31T13:47:55;109.57;;;58.87;;
5157;SDS011;2598;52.364;9.772;2023-07-31T13:50:21;109.87;;;60.60;;
5157;SDS011;2598;52.364;9.772;2023-07-31T13:52:47;110.37;;;59.17;;
5157;SDS011;2598;52.364;9.772;2023-07-31T13:55:13;111.90;;;63.97;;
5157;SDS011;2598;52.364;9.772;2023-07-31T13:57:39;110.70;;;60.70;;
5157;SDS011;2598;52.364;9.772;2023-07-31T14:00:06;107.20;;;56.33;;
5157;SDS011;2598;52.364;9.772;2023-07-31T14:02:33;113.27;;;62.73;;
5157;SDS011;2598;52.364;9.772;2023-07-31T14:04:59;107.20;;;55.83;;
5157;SDS011;2598;52.364;9.772;2023-07-31T14:07:25;108.90;;;60.53;;
5157;SDS011;2598;52.364;9.772;2023-07-31T14:09:51;110.03;;;60.63;;
5157;SDS011;2598;52.364;9.772;2023-07-31T14:12:17;107.77;;;57.73;;
5157;SDS011;2598;52.364;9.772;2023-07-31T14:14:43;108.13;;;60.13;;
5157;SDS011;2598;52.364;9.772;2023-07-31T14:17:09;110.23;;;62.17;;
5157;SDS011;2598;52.364;9.772;2023-07-31T14:19:35;107.30;;;57.23;;
5157;SDS011;2598;52.364;9.772;2023-07-31T14:22:01;108.03;;;58.73;;
5157;SDS011;2598;52.364;9.772;2023-07-31T14:24:27;109.30;;;60.47;;
5157;SDS011;2598;52.364;9.772;2023-07-31T14:26:53;106.23;;;54.03;;
5157;SDS011;2598;52.364;9.772;2023-07-31T14:29:29;108.77;;;59.17;;
5157;SDS011;2598;52.364;9.772;2023-07-31T14:31:55;108.83;;;58.77;;
5157;SDS011;2598;52.364;9.772;2023-07-31T14:34:21;106.67;;;55.63;;
5157;SDS011;2598;52.364;9.772;2023-07-31T14:36:47;118.23;;;64.43;;